Time;durP1;ratioP1;P1;durP2;ratioP2;P2;SDS_P1;SDS_P2;PMS_P1;PMS_P2;Temp;Humidity;BMP_temperature;BMP_pressure;BME280_temperature;BME280_humidity;BME280_pressure;Samples;Min_cycle;Max_cycle;Signal;HPM_P1;HPM_P2
2022/08/07 00:00:19;;;;;;;6.95;5.40;;;18.30;99.90;;;;;;5033865;28;20120;-81
2022/08/07 00:02:45;;;;;;;7.57;5.70;;;18.40;99.90;;;;;;5033930;28;20121;-81
2022/08/07 00:05:11;;;;;;;7.43;5.85;;;18.30;99.90;;;;;;5032333;28;20072;-81
2022/08/07 00:07:36;;;;;;;8.70;5.40;;;18.20;99.90;;;;;;5033895;28;20034;-81
2022/08/07 00:10:03;;;;;;;8.73;5.95;;;18.30;99.90;;;;;;5033997;28;20049;-81
2022/08/07 00:12:29;;;;;;;6.97;5.65;;;18.20;99.90;;;;;;5033834;28;20017;-81
2022/08/07 00:14:54;;;;;;;7.85;5.30;;;18.40;99.90;;;;;;5033865;28;20385;-81
2022/08/07 00:17:20;;;;;;;6.47;5.38;;;18.50;99.90;;;;;;5033608;28;20018;-81
2022/08/07 00:19:46;;;;;;;5.95;4.90;;;18.50;99.90;;;;;;5020587;28;20514;-81
2022/08/07 00:22:12;;;;;;;7.18;5.82;;;18.40;99.90;;;;;;5031267;28;20378;-81
2022/08/07 00:24:37;;;;;;;8.80;5.20;;;18.40;99.90;;;;;;5032312;28;20486;-81
2022/08/07 00:27:03;;;;;;;5.75;4.43;;;18.20;99.90;;;;;;5033277;28;20075;-81
2022/08/07 00:29:29;;;;;;;5.57;4.07;;;18.20;99.90;;;;;;5032543;28;20033;-81
2022/08/07 00:31:58;;;;;;;6.05;3.40;;;18.30;99.90;;;;;;5032023;28;20057;-81
2022/08/07 00:34:27;;;;;;;6.07;3.00;;;18.20;99.90;;;;;;5033136;28;20064;-81
2022/08/07 00:36:54;;;;;;;5.03;3.13;;;18.30;99.90;;;;;;5031903;28;20033;-81
2022/08/07 00:39:20;;;;;;;10.20;2.40;;;18.30;99.90;;;;;;5031346;28;20026;-81
2022/08/07 00:41:57;;;;;;;4.10;2.25;;;18.30;99.90;;;;;;5024187;28;20079;-81
2022/08/07 00:44:23;;;;;;;6.78;2.20;;;18.40;99.90;;;;;;5032905;28;20095;-81
2022/08/07 00:46:50;;;;;;;5.00;2.50;;;18.30;99.90;;;;;;5032957;28;20059;-81
2022/08/07 00:49:16;;;;;;;8.85;3.85;;;17.90;99.90;;;;;;5031868;28;20029;-81
2022/08/07 00:51:42;;;;;;;6.40;3.22;;;17.80;99.90;;;;;;5031931;28;20057;-81
2022/08/07 00:54:09;;;;;;;5.35;2.53;;;17.90;99.90;;;;;;5031695;28;20048;-81
2022/08/07 00:56:36;;;;;;;9.45;2.75;;;17.70;99.90;;;;;;5033092;28;20605;-81
2022/08/07 00:59:02;;;;;;;5.10;2.00;;;17.70;99.90;;;;;;5032473;28;20021;-81
2022/08/07 01:01:28;;;;;;;14.60;2.90;;;17.50;99.90;;;;;;5033107;28;20030;-81
2022/08/07 01:03:54;;;;;;;7.13;2.83;;;17.40;99.90;;;;;;5031641;28;20029;-81
2022/08/07 01:06:20;;;;;;;5.68;2.47;;;17.30;99.90;;;;;;5015072;28;20112;-81
2022/08/07 01:08:46;;;;;;;6.53;2.75;;;17.70;99.90;;;;;;5032811;28;20113;-81
2022/08/07 01:11:13;;;;;;;4.25;1.83;;;17.80;99.90;;;;;;5031417;28;20034;-81
2022/08/07 01:13:40;;;;;;;3.85;2.33;;;17.90;99.90;;;;;;5031498;28;20497;-80
2022/08/07 01:16:07;;;;;;;5.38;2.15;;;18.00;99.90;;;;;;5031064;28;20033;-80
2022/08/07 01:18:33;;;;;;;4.85;2.50;;;17.80;99.90;;;;;;5029977;28;20474;-80
2022/08/07 01:21:19;;;;;;;6.93;2.10;;;17.80;99.90;;;;;;5020648;28;20071;-80
2022/08/07 01:23:47;;;;;;;5.22;2.58;;;17.80;99.90;;;;;;5031055;28;20502;-80
2022/08/07 01:26:16;;;;;;;4.95;2.63;;;17.80;99.90;;;;;;5031492;28;20021;-80
2022/08/07 01:28:45;;;;;;;4.88;2.15;;;17.60;99.90;;;;;;5031179;28;20104;-80
2022/08/07 01:31:17;;;;;;;7.78;2.35;;;17.50;99.90;;;;;;5015334;28;20119;-80
2022/08/07 01:33:49;;;;;;;6.35;2.33;;;17.60;99.90;;;;;;5030877;28;20036;-80
2022/08/07 01:36:15;;;;;;;8.18;3.05;;;16.70;99.90;;;;;;5028217;28;20025;-80
2022/08/07 01:38:43;;;;;;;6.65;2.55;;;16.40;99.90;;;;;;5030806;28;20116;-80
2022/08/07 01:41:19;;;;;;;5.38;3.08;;;16.30;99.90;;;;;;5025650;28;20669;-80
2022/08/07 01:43:46;;;;;;;8.60;3.33;;;16.70;99.90;;;;;;5023181;28;20502;-81
2022/08/07 01:46:14;;;;;;;10.88;3.28;;;16.40;99.90;;;;;;5025339;28;20067;-80
2022/08/07 01:48:43;;;;;;;4.68;2.22;;;16.20;99.90;;;;;;5030998;28;20087;-80
2022/08/07 01:51:16;;;;;;;3.17;2.40;;;16.40;99.90;;;;;;5023975;28;20025;-81
2022/08/07 01:53:46;;;;;;;3.28;2.08;;;16.60;99.90;;;;;;5018200;28;20080;-80
2022/08/07 01:56:28;;;;;;;7.90;2.20;;;16.70;99.90;;;;;;5031258;28;20320;-80
2022/08/07 01:59:04;;;;;;;3.25;2.80;;;16.80;99.90;;;;;;5023517;28;20021;-80
2022/08/07 02:01:45;;;;;;;4.32;3.50;;;17.00;99.90;;;;;;5030843;28;20029;-80
2022/08/07 02:04:24;;;;;;;7.57;4.80;;;17.10;99.90;;;;;;5031777;28;20041;-80
2022/08/07 02:06:55;;;;;;;8.23;6.03;;;17.20;99.90;;;;;;5030986;28;20040;-80
2022/08/07 02:09:27;;;;;;;13.75;6.50;;;17.30;99.90;;;;;;5008320;28;20029;-80
2022/08/07 02:11:55;;;;;;;8.48;5.38;;;17.40;99.90;;;;;;5028140;28;20386;-81
2022/08/07 02:14:25;;;;;;;10.20;5.63;;;17.30;99.90;;;;;;5034419;28;20017;-80
2022/08/07 02:16:53;;;;;;;5.95;4.40;;;17.30;99.90;;;;;;5033881;28;20029;-81
2022/08/07 02:19:21;;;;;;;6.50;4.07;;;17.20;99.90;;;;;;5034995;28;20010;-80
2022/08/07 02:21:48;;;;;;;7.75;4.80;;;17.10;99.90;;;;;;5035878;28;20036;-80
2022/08/07 02:24:15;;;;;;;8.00;4.50;;;17.10;99.90;;;;;;5035769;28;20072;-80
2022/08/07 02:26:42;;;;;;;11.48;4.45;;;17.20;99.90;;;;;;5034812;28;20021;-80
2022/08/07 02:29:09;;;;;;;9.70;4.30;;;17.20;99.90;;;;;;5033918;28;20390;-80
2022/08/07 02:31:37;;;;;;;8.18;4.60;;;17.20;99.90;;;;;;5034520;28;20030;-80
2022/08/07 02:34:04;;;;;;;7.30;4.35;;;17.00;99.90;;;;;;5035606;28;20030;-80
2022/08/07 02:36:36;;;;;;;8.00;5.72;;;16.90;99.90;;;;;;5034237;28;20017;-80
2022/08/07 02:39:10;;;;;;;9.35;6.40;;;17.00;99.90;;;;;;5034536;28;20444;-80
2022/08/07 02:41:37;;;;;;;8.88;6.55;;;17.10;99.90;;;;;;5034252;28;20024;-80
2022/08/07 02:44:05;;;;;;;12.15;7.07;;;17.00;99.90;;;;;;5023002;28;20029;-80
2022/08/07 02:46:34;;;;;;;9.45;6.95;;;17.10;99.90;;;;;;5031370;28;20025;-81
2022/08/07 02:49:02;;;;;;;8.27;6.43;;;16.90;99.90;;;;;;5017025;28;20026;-80
2022/08/07 02:51:32;;;;;;;9.38;6.22;;;16.90;99.90;;;;;;5034165;28;20124;-80
2022/08/07 02:54:01;;;;;;;8.85;6.80;;;16.80;99.90;;;;;;5034202;28;20036;-80
2022/08/07 02:56:30;;;;;;;7.65;6.90;;;16.90;99.90;;;;;;5034052;28;20021;-80
2022/08/07 02:58:59;;;;;;;10.18;7.38;;;16.90;99.90;;;;;;5033376;28;20080;-80
2022/08/07 03:01:28;;;;;;;7.68;6.88;;;17.00;99.90;;;;;;5033781;28;20116;-80
2022/08/07 03:03:56;;;;;;;8.68;6.88;;;17.00;99.90;;;;;;5033909;28;20067;-80
2022/08/07 03:06:26;;;;;;;8.87;7.40;;;17.00;99.90;;;;;;5033799;28;20025;-80
2022/08/07 03:08:53;;;;;;;11.20;6.70;;;17.10;99.90;;;;;;5033856;28;20021;-80
2022/08/07 03:11:20;;;;;;;9.07;6.97;;;17.00;99.90;;;;;;5034004;28;20021;-80
2022/08/07 03:13:46;;;;;;;10.90;7.47;;;16.90;99.90;;;;;;5033324;28;20026;-80
2022/08/07 03:16:13;;;;;;;11.55;7.07;;;16.90;99.90;;;;;;5033957;28;20028;-81
2022/08/07 03:18:39;;;;;;;7.82;6.40;;;17.00;99.90;;;;;;5033419;28;20671;-81
2022/08/07 03:21:06;;;;;;;11.77;6.22;;;16.90;99.90;;;;;;5034653;28;20056;-81
2022/08/07 03:23:33;;;;;;;10.70;7.35;;;16.90;99.90;;;;;;5033754;28;20363;-81
2022/08/07 03:26:02;;;;;;;11.23;7.45;;;16.70;99.90;;;;;;5033495;28;20120;-81
2022/08/07 03:28:34;;;;;;;10.45;7.82;;;16.70;99.90;;;;;;5033505;28;20579;-81
2022/08/07 03:31:20;;;;;;;14.57;8.73;;;16.80;99.90;;;;;;5033194;28;20032;-81
2022/08/07 03:33:56;;;;;;;13.63;9.23;;;16.80;99.90;;;;;;5033177;28;20087;-81
2022/08/07 03:36:25;;;;;;;12.32;9.50;;;16.90;99.90;;;;;;5034762;28;20056;-81
2022/08/07 03:38:55;;;;;;;12.50;9.60;;;17.00;99.90;;;;;;5032686;28;20024;-80
2022/08/07 03:41:21;;;;;;;11.50;8.80;;;16.80;99.90;;;;;;5033021;28;20059;-81
2022/08/07 03:43:47;;;;;;;15.13;9.38;;;16.80;99.90;;;;;;5023360;28;20414;-81
2022/08/07 03:46:14;;;;;;;11.35;9.02;;;16.60;99.90;;;;;;5028844;28;20029;-80
2022/08/07 03:48:40;;;;;;;10.70;8.50;;;16.30;99.90;;;;;;5032687;28;20474;-80
2022/08/07 03:51:07;;;;;;;15.25;9.13;;;16.30;99.90;;;;;;5033868;28;20029;-80
2022/08/07 03:53:38;;;;;;;14.15;9.43;;;16.30;99.90;;;;;;5032998;28;20060;-80
2022/08/07 03:56:06;;;;;;;16.38;8.52;;;16.30;99.90;;;;;;5032400;28;20128;-80
2022/08/07 03:58:36;;;;;;;14.02;8.15;;;16.40;99.90;;;;;;5023729;28;20116;-81
2022/08/07 04:01:03;;;;;;;10.88;8.27;;;16.50;99.90;;;;;;5032631;28;20037;-81
2022/08/07 04:03:31;;;;;;;10.63;6.93;;;16.60;99.90;;;;;;5032882;28;20135;-81
2022/08/07 04:05:59;;;;;;;8.85;6.50;;;16.60;99.90;;;;;;5032797;28;20018;-81
2022/08/07 04:08:25;;;;;;;6.82;6.07;;;16.70;99.90;;;;;;5033924;28;20026;-81
2022/08/07 04:10:52;;;;;;;7.60;5.70;;;16.60;99.90;;;;;;5032290;28;20158;-81
2022/08/07 04:13:21;;;;;;;6.85;5.43;;;16.50;99.90;;;;;;5032595;28;20044;-81
2022/08/07 04:15:47;;;;;;;10.77;5.13;;;16.70;99.90;;;;;;5032501;28;20386;-81
2022/08/07 04:18:14;;;;;;;5.85;4.43;;;16.80;99.90;;;;;;5012319;28;20029;-80
2022/08/07 04:20:42;;;;;;;7.28;5.00;;;16.60;99.90;;;;;;5031905;28;20037;-80
2022/08/07 04:23:09;;;;;;;5.10;4.25;;;16.70;99.90;;;;;;5033660;28;20053;-81
2022/08/07 04:25:39;;;;;;;7.68;3.88;;;16.70;99.90;;;;;;5031911;28;20441;-81
2022/08/07 04:28:11;;;;;;;7.50;3.05;;;16.50;99.90;;;;;;5032245;28;20025;-80
2022/08/07 04:30:39;;;;;;;7.30;3.20;;;16.50;99.90;;;;;;5031960;28;20025;-80
2022/08/07 04:33:11;;;;;;;6.60;3.40;;;16.50;99.90;;;;;;5031936;28;20033;-81
2022/08/07 04:35:43;;;;;;;4.18;3.70;;;16.70;99.90;;;;;;5032143;28;20489;-80
2022/08/07 04:38:13;;;;;;;3.55;3.10;;;16.60;99.90;;;;;;5033335;28;20026;-80
2022/08/07 04:40:44;;;;;;;4.32;3.38;;;16.60;99.90;;;;;;5033272;28;20481;-81
2022/08/07 04:43:11;;;;;;;6.00;4.18;;;16.70;99.90;;;;;;5028039;28;20022;-80
2022/08/07 04:45:56;;;;;;;10.90;4.05;;;16.60;99.90;;;;;;5022674;28;20042;-81
2022/08/07 04:48:29;;;;;;;8.07;4.85;;;16.50;99.90;;;;;;5032022;28;20108;-81
2022/08/07 04:51:01;;;;;;;8.05;3.75;;;16.50;99.90;;;;;;5031986;28;20116;-80
2022/08/07 04:53:40;;;;;;;5.10;3.83;;;16.40;99.90;;;;;;5028024;28;20026;-80
2022/08/07 04:56:23;;;;;;;6.45;4.13;;;16.60;99.90;;;;;;5031318;28;20029;-81
2022/08/07 04:58:54;;;;;;;5.35;4.28;;;16.80;99.90;;;;;;5018213;28;20071;-81
2022/08/07 05:01:45;;;;;;;7.63;4.45;;;16.70;99.90;;;;;;5031132;28;20034;-81
2022/08/07 05:04:14;;;;;;;;;;;16.90;99.90;;;;;;5032172;28;20057;-81
2022/08/07 05:07:14;;;;;;;5.85;3.70;;;17.00;99.90;;;;;;5031740;28;19909;-81
2022/08/07 05:09:56;;;;;;;5.15;3.40;;;17.00;99.90;;;;;;5021747;28;20034;-81
2022/08/07 05:12:30;;;;;;;7.13;3.80;;;17.10;99.90;;;;;;5031815;28;20036;-81
2022/08/07 05:15:16;;;;;;;7.90;3.45;;;17.20;99.90;;;;;;5031613;28;20021;-81
2022/08/07 05:17:52;;;;;;;4.30;3.20;;;17.30;99.90;;;;;;5031462;28;20470;-81
2022/08/07 05:20:29;;;;;;;8.00;3.80;;;17.30;99.90;;;;;;5031342;28;20079;-81
2022/08/07 05:23:03;;;;;;;5.38;3.42;;;17.20;99.90;;;;;;5031147;28;20056;-81
2022/08/07 05:25:32;;;;;;;4.90;3.95;;;17.30;99.90;;;;;;5030693;28;20413;-81
2022/08/07 05:27:59;;;;;;;6.18;4.32;;;17.40;99.90;;;;;;5031052;28;20030;-82
2022/08/07 05:30:26;;;;;;;6.85;3.88;;;17.40;99.90;;;;;;5032811;28;20461;-80
2022/08/07 05:32:53;;;;;;;4.50;3.33;;;17.50;99.90;;;;;;5032443;28;20025;-81
2022/08/07 05:35:20;;;;;;;11.05;3.50;;;17.60;99.90;;;;;;5031277;28;20028;-80
2022/08/07 05:37:47;;;;;;;7.03;4.03;;;17.70;99.90;;;;;;5030883;28;20052;-81
2022/08/07 05:40:16;;;;;;;6.05;3.85;;;17.70;99.90;;;;;;5031251;28;20025;-80
2022/08/07 05:42:45;;;;;;;8.90;3.75;;;17.80;99.90;;;;;;5031405;28;20043;-81
2022/08/07 05:45:11;;;;;;;6.50;3.75;;;17.80;99.90;;;;;;5033035;28;20045;-81
2022/08/07 05:47:38;;;;;;;7.68;3.78;;;17.80;99.90;;;;;;5035304;28;20030;-81
2022/08/07 05:50:05;;;;;;;7.00;4.18;;;17.80;99.90;;;;;;5035187;28;20022;-81
2022/08/07 05:52:31;;;;;;;6.65;4.00;;;18.10;99.90;;;;;;5035122;28;20124;-81
2022/08/07 05:54:57;;;;;;;5.63;3.38;;;18.20;99.90;;;;;;5035063;28;20128;-81
2022/08/07 05:57:26;;;;;;;5.45;3.25;;;18.20;99.90;;;;;;5034966;28;20068;-80
2022/08/07 05:59:53;;;;;;;3.72;2.90;;;18.10;99.90;;;;;;5034013;28;20033;-81
2022/08/07 06:02:20;;;;;;;3.40;2.70;;;18.30;99.90;;;;;;5034974;28;20477;-81
2022/08/07 06:04:51;;;;;;;5.53;2.83;;;18.30;99.90;;;;;;5035009;28;20490;-80
2022/08/07 06:07:18;;;;;;;6.50;3.45;;;18.30;99.90;;;;;;5034897;28;20390;-80
2022/08/07 06:09:45;;;;;;;5.57;2.55;;;18.50;99.90;;;;;;5034939;28;20029;-80
2022/08/07 06:12:12;;;;;;;5.20;2.97;;;18.30;99.90;;;;;;5036114;28;20017;-80
2022/08/07 06:14:38;;;;;;;5.00;3.28;;;18.30;99.90;;;;;;5036031;28;20026;-80
2022/08/07 06:17:07;;;;;;;7.85;3.28;;;18.40;99.90;;;;;;5034488;28;20120;-80
2022/08/07 06:19:38;;;;;;;6.32;3.08;;;18.50;99.90;;;;;;5015769;28;20077;-80
2022/08/07 06:22:04;;;;;;;5.07;3.08;;;18.60;99.90;;;;;;5030759;28;20381;-76
2022/08/07 06:24:31;;;;;;;4.13;2.67;;;19.00;99.90;;;;;;5024739;28;20041;-77
2022/08/07 06:26:57;;;;;;;4.47;2.58;;;19.10;99.90;;;;;;5004287;28;20026;-78
2022/08/07 06:29:27;;;;;;;5.03;2.55;;;19.10;99.90;;;;;;5018012;28;20494;-76
2022/08/07 06:31:53;;;;;;;6.05;2.75;;;19.30;99.90;;;;;;5014782;28;20084;-77
2022/08/07 06:34:24;;;;;;;6.32;2.78;;;19.30;99.90;;;;;;5016375;28;20018;-77
2022/08/07 06:36:50;;;;;;;4.13;2.80;;;19.20;99.90;;;;;;5020402;28;20390;-76
2022/08/07 06:39:16;;;;;;;5.65;2.85;;;19.20;99.90;;;;;;5018619;28;20026;-77
2022/08/07 06:41:59;;;;;;;5.35;2.60;;;19.60;99.90;;;;;;5015188;28;20030;-78
2022/08/07 06:44:44;;;;;;;7.50;2.67;;;19.80;99.90;;;;;;5016595;28;20041;-77
2022/08/07 06:47:11;;;;;;;4.43;2.50;;;19.80;99.90;;;;;;5020043;28;20022;-77
2022/08/07 06:49:37;;;;;;;5.57;3.10;;;20.10;99.90;;;;;;5027430;28;20514;-78
2022/08/07 06:52:06;;;;;;;4.93;2.42;;;20.10;99.90;;;;;;5021737;28;20101;-77
2022/08/07 06:54:32;;;;;;;4.32;2.40;;;19.80;99.90;;;;;;5026438;28;20022;-77
2022/08/07 06:56:59;;;;;;;6.30;2.30;;;19.60;99.90;;;;;;5012636;28;20109;-77
2022/08/07 06:59:35;;;;;;;5.43;2.60;;;19.60;99.90;;;;;;5011611;28;20024;-78
2022/08/07 07:02:06;;;;;;;3.42;2.00;;;19.70;99.90;;;;;;5013760;28;20041;-77
2022/08/07 07:04:33;;;;;;;5.22;2.33;;;19.60;99.90;;;;;;5013662;28;20033;-82
2022/08/07 07:07:00;;;;;;;6.65;2.97;;;19.60;99.90;;;;;;5013711;28;20422;-78
2022/08/07 07:09:29;;;;;;;6.65;3.20;;;19.70;99.90;;;;;;5014478;28;20049;-77
2022/08/07 07:12:07;;;;;;;7.47;3.75;;;19.80;99.90;;;;;;5013481;28;20032;-77
2022/08/07 07:14:44;;;;;;;8.25;5.10;;;19.70;99.90;;;;;;5013749;28;20034;-78
2022/08/07 07:17:21;;;;;;;6.57;5.07;;;19.80;99.90;;;;;;5014365;28;20053;-77
2022/08/07 07:19:51;;;;;;;5.88;4.22;;;19.60;99.90;;;;;;5021206;28;20391;-78
2022/08/07 07:22:18;;;;;;;9.88;3.92;;;19.90;99.90;;;;;;5023686;28;20025;-77
2022/08/07 07:24:46;;;;;;;6.35;3.10;;;20.30;99.90;;;;;;5014486;28;20117;-77
2022/08/07 07:27:15;;;;;;;8.35;3.45;;;20.60;99.90;;;;;;5015012;28;20371;-77
2022/08/07 07:29:46;;;;;;;6.43;3.58;;;20.30;99.90;;;;;;5014867;28;20117;-79
2022/08/07 07:32:13;;;;;;;6.40;2.28;;;20.70;99.90;;;;;;5014316;28;20033;-78
2022/08/07 07:34:44;;;;;;;4.38;2.22;;;20.60;99.90;;;;;;5014733;28;20025;-78
2022/08/07 07:37:11;;;;;;;3.60;2.17;;;20.40;99.90;;;;;;5015060;28;20038;-79
2022/08/07 07:39:39;;;;;;;7.80;2.60;;;20.90;99.90;;;;;;5018167;28;20026;-77
2022/08/07 07:42:08;;;;;;;5.63;2.88;;;20.90;99.90;;;;;;5014406;28;20422;-78
2022/08/07 07:44:37;;;;;;;4.65;2.08;;;21.20;99.90;;;;;;5013124;28;20034;-77
2022/08/07 07:47:05;;;;;;;2.97;1.98;;;21.40;99.90;;;;;;5021613;28;20049;-78
2022/08/07 07:49:33;;;;;;;2.72;2.05;;;21.70;99.70;;;;;;5011039;28;20083;-78
2022/08/07 07:52:01;;;;;;;4.95;1.73;;;22.00;99.00;;;;;;5025048;28;20029;-78
2022/08/07 07:54:28;;;;;;;4.75;1.45;;;21.80;99.10;;;;;;5024266;28;20018;-79
2022/08/07 07:56:56;;;;;;;5.97;1.60;;;21.60;99.10;;;;;;5028093;28;20072;-77
2022/08/07 07:59:23;;;;;;;4.28;1.67;;;22.00;98.70;;;;;;5022573;28;20018;-78
2022/08/07 08:01:51;;;;;;;3.58;1.70;;;21.90;97.90;;;;;;5017844;28;20037;-78
2022/08/07 08:04:19;;;;;;;2.90;1.75;;;21.40;99.50;;;;;;5014079;28;20025;-77
2022/08/07 08:06:46;;;;;;;4.03;1.80;;;21.60;98.70;;;;;;5014490;28;20038;-77
2022/08/07 08:09:15;;;;;;;3.47;1.88;;;21.60;98.80;;;;;;5013359;28;20037;-78
2022/08/07 08:11:43;;;;;;;6.35;1.77;;;21.70;98.90;;;;;;5017020;28;20054;-78
2022/08/07 08:14:09;;;;;;;4.93;1.77;;;21.90;98.40;;;;;;5014442;28;20121;-77
2022/08/07 08:16:39;;;;;;;4.53;1.60;;;22.00;97.70;;;;;;5014026;28;20034;-77
2022/08/07 08:19:08;;;;;;;3.80;1.80;;;21.90;98.20;;;;;;5014783;28;20022;-77
2022/08/07 08:27:13;;;;;;;4.65;2.03;;;21.60;97.70;;;;;;5015461;28;20053;-77
2022/08/07 08:29:48;;;;;;;3.83;1.50;;;21.70;98.50;;;;;;5014385;28;20030;-79
2022/08/07 08:32:17;;;;;;;4.55;1.60;;;21.70;97.90;;;;;;5014255;28;20108;-80
2022/08/07 08:34:45;;;;;;;5.43;1.70;;;21.30;97.70;;;;;;5014460;28;20394;-77
2022/08/07 08:37:12;;;;;;;4.45;1.83;;;21.40;97.80;;;;;;5017775;28;20053;-77
2022/08/07 08:39:41;;;;;;;5.55;2.20;;;20.80;98.30;;;;;;5014062;28;20076;-76
2022/08/07 08:42:18;;;;;;;3.58;2.10;;;21.20;99.30;;;;;;5014603;28;20367;-79
2022/08/07 08:45:02;;;;;;;5.72;1.90;;;21.30;98.90;;;;;;5012449;28;20030;-80
2022/08/07 08:47:35;;;;;;;3.03;1.75;;;21.80;98.20;;;;;;5012664;28;20021;-79
2022/08/07 08:50:40;;;;;;;6.13;1.83;;;22.10;98.30;;;;;;5015448;28;20088;-77
2022/08/07 08:53:31;;;;;;;5.45;2.22;;;21.80;98.10;;;;;;5015268;28;20037;-79
2022/08/07 08:56:01;;;;;;;7.25;2.60;;;22.20;97.60;;;;;;5026956;28;20037;-79
2022/08/07 08:59:00;;;;;;;2.20;1.83;;;22.60;96.90;;;;;;5012928;28;20034;-77
2022/08/07 09:01:39;;;;;;;4.93;2.08;;;22.90;97.20;;;;;;5013987;28;20088;-76
2022/08/07 09:04:32;;;;;;;8.68;2.65;;;22.60;96.00;;;;;;5017325;28;20064;-76
2022/08/07 09:07:25;;;;;;;5.85;2.13;;;22.70;96.20;;;;;;5015893;28;20080;-76
2022/08/07 09:09:55;;;;;;;5.20;2.60;;;23.40;95.80;;;;;;5018852;28;20044;-77
2022/08/07 09:12:34;;;;;;;4.93;2.80;;;23.40;95.60;;;;;;5024854;28;20113;-79
2022/08/07 09:15:10;;;;;;;8.52;3.17;;;22.10;96.20;;;;;;5013989;28;20095;-78
2022/08/07 09:17:54;;;;;;;6.50;3.00;;;21.50;97.10;;;;;;5012674;28;20026;-79
2022/08/07 09:20:56;;;;;;;8.02;3.10;;;22.40;98.00;;;;;;5011421;28;20060;-77
2022/08/07 09:23:43;;;;;;;4.38;2.88;;;22.90;96.60;;;;;;5007194;28;20034;-77
2022/08/07 09:26:14;;;;;;;4.05;3.38;;;22.30;96.30;;;;;;5016663;28;20041;-77
2022/08/07 09:28:43;;;;;;;4.70;2.55;;;22.40;96.90;;;;;;5020970;28;20026;-79
2022/08/07 09:31:31;;;;;;;5.22;2.35;;;22.70;95.30;;;;;;5022437;28;20425;-80
2022/08/07 09:34:20;;;;;;;3.80;2.03;;;23.40;94.60;;;;;;5019046;28;20475;-77
2022/08/07 09:37:10;;;;;;;10.43;3.75;;;23.90;94.70;;;;;;5013314;28;20398;-76
2022/08/07 09:39:55;;;;;;;9.30;3.67;;;23.10;94.50;;;;;;5014189;28;20117;-78
2022/08/07 09:42:35;;;;;;;5.38;3.70;;;21.90;95.90;;;;;;5017191;28;20442;-78
2022/08/07 09:45:22;;;;;;;7.50;4.32;;;21.30;97.30;;;;;;5022573;28;20045;-76
2022/08/07 09:48:25;;;;;;;4.63;2.95;;;22.00;96.70;;;;;;5027808;28;20449;-76
2022/08/07 09:51:25;;;;;;;6.43;3.20;;;22.60;96.50;;;;;;5023857;28;20038;-77
2022/08/07 09:53:57;;;;;;;6.97;3.17;;;22.40;96.00;;;;;;5022708;28;20029;-76
2022/08/07 09:56:53;;;;;;;9.43;3.85;;;22.80;95.70;;;;;;5026641;28;20029;-78
2022/08/07 09:59:34;;;;;;;6.53;3.63;;;23.20;94.70;;;;;;5020386;28;20116;-79
2022/08/07 10:02:34;;;;;;;5.95;3.38;;;22.80;95.40;;;;;;5019200;28;20037;-79
2022/08/07 10:05:16;;;;;;;5.45;3.00;;;23.30;94.60;;;;;;5021106;28;20037;-79
2022/08/07 10:07:58;;;;;;;7.38;3.58;;;23.80;94.60;;;;;;5025597;28;20021;-77
2022/08/07 10:10:27;;;;;;;;;;;23.90;93.80;;;;;;5020037;28;20033;-79
2022/08/07 10:13:18;;;;;;;57.63;11.73;;;23.10;93.80;;;;;;5026629;28;20225;-77
2022/08/07 10:16:11;;;;;;;7.05;3.35;;;23.60;94.40;;;;;;5024866;28;20033;-77
2022/08/07 10:18:56;;;;;;;5.13;2.97;;;24.30;92.40;;;;;;5026159;28;20049;-78
2022/08/07 10:21:41;;;;;;;7.85;3.88;;;24.00;91.80;;;;;;5019662;28;20045;-77
2022/08/07 10:24:22;;;;;;;5.20;3.50;;;23.00;92.90;;;;;;5021222;28;20437;-76
2022/08/07 10:27:14;;;;;;;4.17;3.43;;;23.60;92.20;;;;;;5022984;28;20045;-76
2022/08/07 10:30:02;;;;;;;6.15;3.00;;;23.10;92.00;;;;;;5015442;28;20474;-77
2022/08/07 10:33:00;;;;;;;8.73;3.75;;;23.60;92.40;;;;;;5025107;28;20038;-77
2022/08/07 10:35:54;;;;;;;5.93;2.90;;;24.20;91.80;;;;;;5021020;28;20029;-76
2022/08/07 10:38:28;;;;;;;9.75;3.15;;;24.30;90.70;;;;;;5025003;28;20037;-77
2022/08/07 10:41:31;;;;;;;10.20;3.33;;;24.20;90.80;;;;;;5031373;28;20493;-77
2022/08/07 10:44:15;;;;;;;6.30;2.72;;;23.80;91.10;;;;;;5022958;28;20049;-77
2022/08/07 10:46:52;;;;;;;4.30;2.60;;;23.20;92.80;;;;;;5016881;28;20378;-81
2022/08/07 10:49:33;;;;;;;5.60;3.40;;;24.10;90.70;;;;;;5017759;28;20052;-78
2022/08/07 10:52:13;;;;;;;7.90;2.88;;;23.40;91.00;;;;;;5016309;28;20030;-82
2022/08/07 10:54:41;;;;;;;4.50;2.83;;;23.90;91.00;;;;;;5016405;28;20033;-83
2022/08/07 10:57:28;;;;;;;4.55;3.83;;;24.00;90.50;;;;;;5012822;28;20022;-84
2022/08/07 11:00:11;;;;;;;7.05;2.97;;;24.40;89.50;;;;;;5014759;28;20363;-84
2022/08/07 11:02:52;;;;;;;6.57;3.10;;;23.60;90.00;;;;;;5014674;28;20459;-83
2022/08/07 11:05:46;;;;;;;4.03;2.60;;;23.30;90.00;;;;;;5015000;28;20034;-83
2022/08/07 11:08:36;;;;;;;5.43;3.38;;;23.70;90.20;;;;;;5014333;28;20092;-83
2022/08/07 11:11:31;;;;;;;5.22;3.47;;;23.60;90.00;;;;;;5014981;28;20030;-81
2022/08/07 11:14:10;;;;;;;5.15;2.60;;;24.30;89.40;;;;;;5014650;28;20072;-83
2022/08/07 11:16:44;;;;;;;5.68;2.75;;;24.90;88.90;;;;;;5013498;28;20044;-83
2022/08/07 11:19:37;;;;;;;5.05;2.75;;;25.10;88.30;;;;;;5015322;28;20386;-82
2022/08/07 11:22:26;;;;;;;9.95;2.88;;;24.30;87.70;;;;;;5015160;28;20509;-83
2022/08/07 11:25:15;;;;;;;4.50;2.53;;;24.10;89.00;;;;;;5015221;28;20049;-83
2022/08/07 11:28:06;;;;;;;7.38;3.10;;;24.80;88.40;;;;;;5014890;28;20062;-82
2022/08/07 11:31:00;;;;;;;6.50;3.00;;;25.20;86.70;;;;;;5014877;28;20033;-83
2022/08/07 11:33:50;;;;;;;4.07;2.33;;;25.50;85.60;;;;;;5015110;28;20450;-81
2022/08/07 11:36:25;;;;;;;3.63;2.65;;;25.20;86.50;;;;;;5015101;28;20117;-83
2022/08/07 11:38:57;;;;;;;8.52;2.78;;;25.80;86.60;;;;;;5014614;28;20022;-82
2022/08/07 11:41:27;;;;;;;;;;;26.40;86.00;;;;;;5015040;28;20038;-82
2022/08/07 11:44:14;;;;;;;3.90;2.80;;;26.40;85.00;;;;;;5013381;28;19919;-83
2022/08/07 11:47:28;;;;;;;8.32;2.67;;;25.70;86.00;;;;;;5032972;28;20056;-82
2022/08/07 11:50:17;;;;;;;6.13;3.28;;;25.70;86.50;;;;;;5032178;28;20029;-82
2022/08/07 11:52:58;;;;;;;6.18;2.92;;;26.50;86.60;;;;;;5026882;28;20032;-81
2022/08/07 11:55:45;;;;;;;8.60;2.70;;;27.50;85.20;;;;;;5034290;28;20063;-84
2022/08/07 11:58:29;;;;;;;5.78;2.45;;;27.80;84.00;;;;;;5033073;28;20026;-83
2022/08/07 12:01:08;;;;;;;3.65;2.45;;;27.30;83.10;;;;;;5034337;28;20083;-80
2022/08/07 12:03:59;;;;;;;4.88;2.47;;;26.40;83.60;;;;;;5032812;28;20362;-84
2022/08/07 12:06:48;;;;;;;5.15;2.60;;;26.20;84.00;;;;;;5034223;28;20033;-83
2022/08/07 12:09:23;;;;;;;8.90;2.78;;;26.20;83.80;;;;;;5033948;28;20485;-83
2022/08/07 12:12:05;;;;;;;7.30;2.65;;;26.80;84.70;;;;;;5033984;28;20048;-83
2022/08/07 12:14:41;;;;;;;4.13;2.50;;;27.60;83.80;;;;;;5033962;28;20040;-83
2022/08/07 12:17:10;;;;;;;5.13;2.50;;;28.00;82.60;;;;;;5033744;28;20037;-84
2022/08/07 12:19:44;;;;;;;4.80;2.50;;;27.50;80.30;;;;;;5033892;28;20053;-84
2022/08/07 12:22:22;;;;;;;3.92;1.95;;;26.90;80.80;;;;;;5032521;28;20213;-84
2022/08/07 12:28:02;;;;;;;3.53;2.20;;;27.80;79.40;;;;;;5033835;28;20481;-83
2022/08/07 12:30:33;;;;;;;10.18;2.42;;;28.30;78.70;;;;;;5033514;28;20482;-85
2022/08/07 12:33:08;;;;;;;6.32;2.08;;;27.50;78.40;;;;;;5025828;28;20103;-83
2022/08/07 12:35:35;;;;;;;5.65;1.48;;;28.10;78.90;;;;;;5033535;28;20028;-84
2022/08/07 12:38:02;;;;;;;3.00;1.77;;;28.40;77.70;;;;;;5033366;28;20026;-84
2022/08/07 12:40:31;;;;;;;3.75;2.00;;;28.30;77.10;;;;;;5033745;28;20033;-85
2022/08/07 12:43:00;;;;;;;3.85;1.77;;;27.40;76.30;;;;;;5031203;28;20516;-83
2022/08/07 12:45:36;;;;;;;6.40;1.80;;;27.40;77.90;;;;;;5022057;28;20060;-82
2022/08/07 12:48:16;;;;;;;5.40;1.80;;;27.60;77.70;;;;;;5033179;28;20482;-83
2022/08/07 12:51:10;;;;;;;5.20;1.60;;;28.20;77.30;;;;;;5033638;28;20126;-85
2022/08/07 12:54:01;;;;;;;3.33;1.70;;;28.80;76.40;;;;;;5032414;28;20021;-84
2022/08/07 12:56:40;;;;;;;3.45;1.50;;;29.50;75.80;;;;;;5031702;28;20041;-85
2022/08/07 12:59:10;;;;;;;2.92;1.50;;;29.30;74.50;;;;;;5032318;28;20480;-86
2022/08/07 13:01:52;;;;;;;4.93;1.75;;;29.50;74.70;;;;;;5033128;28;20033;-85
2022/08/07 13:04:41;;;;;;;7.53;1.77;;;28.50;73.80;;;;;;5033072;28;20036;-85
2022/08/07 13:07:35;;;;;;;3.17;1.40;;;28.30;75.40;;;;;;5032769;28;20025;-83
2022/08/07 13:10:14;;;;;;;3.70;1.90;;;28.80;74.20;;;;;;5033119;28;20116;-85
2022/08/07 13:13:11;;;;;;;2.75;1.80;;;28.10;74.10;;;;;;5032583;28;20029;-84
2022/08/07 13:16:23;;;;;;;3.28;1.92;;;28.30;75.20;;;;;;5032498;28;20071;-83
2022/08/07 13:19:14;;;;;;;2.35;1.58;;;29.40;74.20;;;;;;5032543;28;20470;-81
2022/08/07 13:21:53;;;;;;;4.80;1.92;;;30.40;73.40;;;;;;5020707;28;20042;-83
2022/08/07 13:25:14;;;;;;;1.88;1.70;;;30.30;73.70;;;;;;5019388;28;20037;-86
2022/08/07 13:27:47;;;;;;;3.10;1.97;;;30.20;73.60;;;;;;5018813;28;20030;-83
2022/08/07 13:30:13;;;;;;;2.35;1.50;;;29.50;73.10;;;;;;5032991;28;20041;-85